sensor_id;sensor_type;location;lat;lon;timestamp;P1;durP1;ratioP1;P2;durP2;ratioP2
16179;SDS011;8196;49.428;10.906;2023-03-14T00:00:10;0.10;;;0.10;;
16179;SDS011;8196;49.428;10.906;2023-03-14T00:02:37;0.10;;;0.10;;
16179;SDS011;8196;49.428;10.906;2023-03-14T00:05:04;0.05;;;0.05;;
16179;SDS011;8196;49.428;10.906;2023-03-14T00:07:33;0.00;;;0.00;;
16179;SDS011;8196;49.428;10.906;2023-03-14T00:10:06;0.05;;;0.05;;
16179;SDS011;8196;49.428;10.906;2023-03-14T00:12:33;0.40;;;0.40;;
16179;SDS011;8196;49.428;10.906;2023-03-14T00:15:00;0.00;;;0.00;;
16179;SDS011;8196;49.428;10.906;2023-03-14T00:17:30;0.00;;;0.00;;
16179;SDS011;8196;49.428;10.906;2023-03-14T00:19:57;0.05;;;0.05;;
16179;SDS011;8196;49.428;10.906;2023-03-14T00:22:30;0.10;;;0.10;;
16179;SDS011;8196;49.428;10.906;2023-03-14T00:24:57;0.10;;;0.10;;
16179;SDS011;8196;49.428;10.906;2023-03-14T00:27:24;0.10;;;0.10;;
16179;SDS011;8196;49.428;10.906;2023-03-14T00:29:52;0.30;;;0.30;;
16179;SDS011;8196;49.428;10.906;2023-03-14T00:32:19;0.10;;;0.10;;
16179;SDS011;8196;49.428;10.906;2023-03-14T00:34:46;0.10;;;0.10;;
16179;SDS011;8196;49.428;10.906;2023-03-14T00:37:13;0.10;;;0.10;;
16179;SDS011;8196;49.428;10.906;2023-03-14T00:39:40;0.40;;;0.40;;
16179;SDS011;8196;49.428;10.906;2023-03-14T00:42:08;1.00;;;0.50;;
16179;SDS011;8196;49.428;10.906;2023-03-14T00:44:35;0.63;;;0.40;;
16179;SDS011;8196;49.428;10.906;2023-03-14T00:47:02;1.50;;;0.60;;
16179;SDS011;8196;49.428;10.906;2023-03-14T00:49:29;0.50;;;0.50;;
16179;SDS011;8196;49.428;10.906;2023-03-14T00:51:56;0.38;;;0.38;;
16179;SDS011;8196;49.428;10.906;2023-03-14T00:54:23;0.68;;;0.43;;
16179;SDS011;8196;49.428;10.906;2023-03-14T00:56:50;0.52;;;0.47;;
16179;SDS011;8196;49.428;10.906;2023-03-14T00:59:17;0.40;;;0.40;;
16179;SDS011;8196;49.428;10.906;2023-03-14T01:01:45;0.40;;;0.40;;
16179;SDS011;8196;49.428;10.906;2023-03-14T01:04:12;0.40;;;0.40;;
16179;SDS011;8196;49.428;10.906;2023-03-14T01:06:39;0.57;;;0.40;;
16179;SDS011;8196;49.428;10.906;2023-03-14T01:09:07;0.47;;;0.47;;
16179;SDS011;8196;49.428;10.906;2023-03-14T01:11:34;0.50;;;0.50;;
16179;SDS011;8196;49.428;10.906;2023-03-14T01:14:01;0.47;;;0.40;;
16179;SDS011;8196;49.428;10.906;2023-03-14T01:16:31;0.43;;;0.43;;
16179;SDS011;8196;49.428;10.906;2023-03-14T01:18:58;1.23;;;0.40;;
16179;SDS011;8196;49.428;10.906;2023-03-14T01:21:28;0.40;;;0.40;;
16179;SDS011;8196;49.428;10.906;2023-03-14T01:23:56;0.57;;;0.40;;
16179;SDS011;8196;49.428;10.906;2023-03-14T01:26:24;0.40;;;0.40;;
16179;SDS011;8196;49.428;10.906;2023-03-14T01:28:52;0.70;;;0.40;;
16179;SDS011;8196;49.428;10.906;2023-03-14T01:31:19;0.50;;;0.38;;
16179;SDS011;8196;49.428;10.906;2023-03-14T01:33:46;0.77;;;0.47;;
16179;SDS011;8196;49.428;10.906;2023-03-14T01:36:14;0.70;;;0.40;;
16179;SDS011;8196;49.428;10.906;2023-03-14T01:38:41;0.70;;;0.70;;
16179;SDS011;8196;49.428;10.906;2023-03-14T01:41:12;0.40;;;0.40;;
16179;SDS011;8196;49.428;10.906;2023-03-14T01:43:40;0.95;;;0.50;;
16179;SDS011;8196;49.428;10.906;2023-03-14T01:51:06;0.50;;;0.40;;
16179;SDS011;8196;49.428;10.906;2023-03-14T01:53:35;0.40;;;0.40;;
16179;SDS011;8196;49.428;10.906;2023-03-14T01:56:02;0.52;;;0.52;;
16179;SDS011;8196;49.428;10.906;2023-03-14T01:58:29;0.40;;;0.40;;
16179;SDS011;8196;49.428;10.906;2023-03-14T02:01:00;0.50;;;0.50;;
16179;SDS011;8196;49.428;10.906;2023-03-14T02:03:29;0.50;;;0.50;;
16179;SDS011;8196;49.428;10.906;2023-03-14T02:05:57;0.50;;;0.50;;
16179;SDS011;8196;49.428;10.906;2023-03-14T02:08:26;0.88;;;0.88;;
16179;SDS011;8196;49.428;10.906;2023-03-14T02:10:54;0.60;;;0.60;;
16179;SDS011;8196;49.428;10.906;2023-03-14T02:13:21;0.70;;;0.70;;
16179;SDS011;8196;49.428;10.906;2023-03-14T02:15:49;1.40;;;0.70;;
16179;SDS011;8196;49.428;10.906;2023-03-14T02:18:16;0.90;;;0.63;;
16179;SDS011;8196;49.428;10.906;2023-03-14T02:23:36;0.80;;;0.50;;
16179;SDS011;8196;49.428;10.906;2023-03-14T02:26:11;0.60;;;0.50;;
16179;SDS011;8196;49.428;10.906;2023-03-14T02:28:40;0.50;;;0.50;;
16179;SDS011;8196;49.428;10.906;2023-03-14T02:31:07;0.40;;;0.40;;
16179;SDS011;8196;49.428;10.906;2023-03-14T02:33:35;0.68;;;0.50;;
16179;SDS011;8196;49.428;10.906;2023-03-14T02:36:04;0.60;;;0.60;;
16179;SDS011;8196;49.428;10.906;2023-03-14T02:38:52;0.47;;;0.47;;
16179;SDS011;8196;49.428;10.906;2023-03-14T02:41:21;0.40;;;0.40;;
16179;SDS011;8196;49.428;10.906;2023-03-14T02:43:48;0.40;;;0.40;;
16179;SDS011;8196;49.428;10.906;2023-03-14T02:46:16;0.40;;;0.40;;
16179;SDS011;8196;49.428;10.906;2023-03-14T02:48:46;0.75;;;0.50;;
16179;SDS011;8196;49.428;10.906;2023-03-14T02:51:14;0.32;;;0.32;;
16179;SDS011;8196;49.428;10.906;2023-03-14T02:53:41;0.40;;;0.40;;
16179;SDS011;8196;49.428;10.906;2023-03-14T02:56:09;0.45;;;0.40;;
16179;SDS011;8196;49.428;10.906;2023-03-14T02:58:36;0.45;;;0.40;;
16179;SDS011;8196;49.428;10.906;2023-03-14T03:01:04;0.40;;;0.40;;
16179;SDS011;8196;49.428;10.906;2023-03-14T03:03:31;0.40;;;0.30;;
16179;SDS011;8196;49.428;10.906;2023-03-14T03:05:58;0.55;;;0.30;;
16179;SDS011;8196;49.428;10.906;2023-03-14T03:08:26;0.30;;;0.30;;
16179;SDS011;8196;49.428;10.906;2023-03-14T03:10:53;0.80;;;0.40;;
16179;SDS011;8196;49.428;10.906;2023-03-14T03:13:21;0.55;;;0.50;;
16179;SDS011;8196;49.428;10.906;2023-03-14T03:15:48;0.40;;;0.30;;
16179;SDS011;8196;49.428;10.906;2023-03-14T03:18:15;0.50;;;0.50;;
16179;SDS011;8196;49.428;10.906;2023-03-14T03:20:42;0.40;;;0.40;;
16179;SDS011;8196;49.428;10.906;2023-03-14T03:23:09;0.30;;;0.30;;
16179;SDS011;8196;49.428;10.906;2023-03-14T03:25:36;0.40;;;0.40;;
16179;SDS011;8196;49.428;10.906;2023-03-14T03:28:04;0.50;;;0.40;;
16179;SDS011;8196;49.428;10.906;2023-03-14T03:30:37;0.57;;;0.40;;
16179;SDS011;8196;49.428;10.906;2023-03-14T03:33:04;0.60;;;0.40;;
16179;SDS011;8196;49.428;10.906;2023-03-14T03:35:31;0.50;;;0.30;;
16179;SDS011;8196;49.428;10.906;2023-03-14T03:37:58;0.30;;;0.30;;
16179;SDS011;8196;49.428;10.906;2023-03-14T03:40:26;0.60;;;0.50;;
16179;SDS011;8196;49.428;10.906;2023-03-14T03:42:53;0.50;;;0.50;;
16179;SDS011;8196;49.428;10.906;2023-03-14T03:45:20;0.30;;;0.30;;
16179;SDS011;8196;49.428;10.906;2023-03-14T03:47:47;0.40;;;0.40;;
16179;SDS011;8196;49.428;10.906;2023-03-14T03:50:14;0.40;;;0.40;;
16179;SDS011;8196;49.428;10.906;2023-03-14T03:52:41;0.22;;;0.22;;
16179;SDS011;8196;49.428;10.906;2023-03-14T03:55:08;0.30;;;0.30;;
16179;SDS011;8196;49.428;10.906;2023-03-14T03:57:35;0.50;;;0.40;;
16179;SDS011;8196;49.428;10.906;2023-03-14T04:00:03;0.40;;;0.40;;
16179;SDS011;8196;49.428;10.906;2023-03-14T04:02:31;0.30;;;0.30;;
16179;SDS011;8196;49.428;10.906;2023-03-14T04:04:59;0.40;;;0.40;;
16179;SDS011;8196;49.428;10.906;2023-03-14T04:07:26;0.60;;;0.40;;
16179;SDS011;8196;49.428;10.906;2023-03-14T04:09:53;0.80;;;0.30;;
16179;SDS011;8196;49.428;10.906;2023-03-14T04:12:20;1.77;;;0.50;;
16179;SDS011;8196;49.428;10.906;2023-03-14T04:14:47;0.50;;;0.30;;
16179;SDS011;8196;49.428;10.906;2023-03-14T04:17:14;0.30;;;0.30;;
16179;SDS011;8196;49.428;10.906;2023-03-14T04:19:41;0.50;;;0.50;;
16179;SDS011;8196;49.428;10.906;2023-03-14T04:22:09;0.52;;;0.43;;
16179;SDS011;8196;49.428;10.906;2023-03-14T04:24:36;0.70;;;0.40;;
16179;SDS011;8196;49.428;10.906;2023-03-14T04:27:03;0.40;;;0.40;;
16179;SDS011;8196;49.428;10.906;2023-03-14T04:29:30;0.80;;;0.47;;
16179;SDS011;8196;49.428;10.906;2023-03-14T04:31:57;0.37;;;0.37;;
16179;SDS011;8196;49.428;10.906;2023-03-14T04:34:24;0.40;;;0.40;;
16179;SDS011;8196;49.428;10.906;2023-03-14T04:36:51;0.30;;;0.30;;
16179;SDS011;8196;49.428;10.906;2023-03-14T04:39:18;0.40;;;0.40;;
16179;SDS011;8196;49.428;10.906;2023-03-14T04:41:45;1.33;;;0.50;;
16179;SDS011;8196;49.428;10.906;2023-03-14T04:44:13;0.50;;;0.40;;
16179;SDS011;8196;49.428;10.906;2023-03-14T04:46:40;1.00;;;0.40;;
16179;SDS011;8196;49.428;10.906;2023-03-14T04:49:07;0.40;;;0.40;;
16179;SDS011;8196;49.428;10.906;2023-03-14T04:51:36;0.70;;;0.40;;
16179;SDS011;8196;49.428;10.906;2023-03-14T04:54:03;0.45;;;0.40;;
16179;SDS011;8196;49.428;10.906;2023-03-14T04:56:30;0.30;;;0.30;;
16179;SDS011;8196;49.428;10.906;2023-03-14T04:58:57;0.60;;;0.60;;
16179;SDS011;8196;49.428;10.906;2023-03-14T05:01:25;0.50;;;0.50;;
16179;SDS011;8196;49.428;10.906;2023-03-14T05:03:52;0.93;;;0.60;;
16179;SDS011;8196;49.428;10.906;2023-03-14T05:06:19;0.80;;;0.60;;
16179;SDS011;8196;49.428;10.906;2023-03-14T05:08:46;0.70;;;0.52;;
16179;SDS011;8196;49.428;10.906;2023-03-14T05:11:13;0.60;;;0.60;;
16179;SDS011;8196;49.428;10.906;2023-03-14T05:13:40;0.60;;;0.60;;
16179;SDS011;8196;49.428;10.906;2023-03-14T05:16:08;0.50;;;0.50;;
16179;SDS011;8196;49.428;10.906;2023-03-14T05:18:36;0.60;;;0.60;;
16179;SDS011;8196;49.428;10.906;2023-03-14T05:21:03;0.70;;;0.52;;
16179;SDS011;8196;49.428;10.906;2023-03-14T05:23:31;0.40;;;0.40;;
16179;SDS011;8196;49.428;10.906;2023-03-14T05:25:57;0.68;;;0.50;;
16179;SDS011;8196;49.428;10.906;2023-03-14T05:28:24;0.90;;;0.70;;
16179;SDS011;8196;49.428;10.906;2023-03-14T05:30:52;1.73;;;0.80;;
16179;SDS011;8196;49.428;10.906;2023-03-14T05:33:19;1.10;;;0.50;;
16179;SDS011;8196;49.428;10.906;2023-03-14T05:35:46;0.68;;;0.68;;
16179;SDS011;8196;49.428;10.906;2023-03-14T05:38:13;0.80;;;0.70;;
16179;SDS011;8196;49.428;10.906;2023-03-14T05:40:40;1.35;;;0.60;;
16179;SDS011;8196;49.428;10.906;2023-03-14T05:43:07;0.50;;;0.50;;
16179;SDS011;8196;49.428;10.906;2023-03-14T05:45:34;0.82;;;0.50;;
16179;SDS011;8196;49.428;10.906;2023-03-14T05:48:02;0.80;;;0.80;;
16179;SDS011;8196;49.428;10.906;2023-03-14T05:50:29;0.52;;;0.52;;
16179;SDS011;8196;49.428;10.906;2023-03-14T05:52:56;0.87;;;0.70;;
16179;SDS011;8196;49.428;10.906;2023-03-14T05:55:23;0.63;;;0.60;;
16179;SDS011;8196;49.428;10.906;2023-03-14T05:57:50;1.75;;;0.73;;
16179;SDS011;8196;49.428;10.906;2023-03-14T06:00:17;0.55;;;0.55;;
16179;SDS011;8196;49.428;10.906;2023-03-14T06:02:44;1.17;;;0.70;;
16179;SDS011;8196;49.428;10.906;2023-03-14T06:05:11;0.80;;;0.70;;
16179;SDS011;8196;49.428;10.906;2023-03-14T06:07:39;1.25;;;0.70;;
16179;SDS011;8196;49.428;10.906;2023-03-14T06:10:06;1.30;;;0.70;;
16179;SDS011;8196;49.428;10.906;2023-03-14T06:12:33;0.70;;;0.70;;
16179;SDS011;8196;49.428;10.906;2023-03-14T06:15:00;0.65;;;0.65;;
16179;SDS011;8196;49.428;10.906;2023-03-14T06:17:27;0.88;;;0.60;;
16179;SDS011;8196;49.428;10.906;2023-03-14T06:19:55;1.55;;;0.70;;
16179;SDS011;8196;49.428;10.906;2023-03-14T06:22:22;1.53;;;0.80;;
16179;SDS011;8196;49.428;10.906;2023-03-14T06:24:49;0.60;;;0.60;;
16179;SDS011;8196;49.428;10.906;2023-03-14T06:27:16;0.80;;;0.80;;
16179;SDS011;8196;49.428;10.906;2023-03-14T06:29:43;0.98;;;0.88;;
16179;SDS011;8196;49.428;10.906;2023-03-14T06:32:10;1.20;;;1.00;;
16179;SDS011;8196;49.428;10.906;2023-03-14T06:34:37;0.80;;;0.80;;
16179;SDS011;8196;49.428;10.906;2023-03-14T06:37:04;1.40;;;0.90;;
16179;SDS011;8196;49.428;10.906;2023-03-14T06:39:31;0.80;;;0.80;;
16179;SDS011;8196;49.428;10.906;2023-03-14T06:41:59;1.80;;;0.93;;
16179;SDS011;8196;49.428;10.906;2023-03-14T06:44:26;1.10;;;0.90;;
16179;SDS011;8196;49.428;10.906;2023-03-14T06:46:53;1.27;;;1.05;;
16179;SDS011;8196;49.428;10.906;2023-03-14T06:49:20;0.98;;;0.90;;
16179;SDS011;8196;49.428;10.906;2023-03-14T06:51:47;1.48;;;0.90;;
16179;SDS011;8196;49.428;10.906;2023-03-14T06:54:14;1.17;;;0.93;;
16179;SDS011;8196;49.428;10.906;2023-03-14T06:56:41;1.35;;;0.90;;
16179;SDS011;8196;49.428;10.906;2023-03-14T06:59:08;1.75;;;1.00;;
16179;SDS011;8196;49.428;10.906;2023-03-14T07:01:35;0.80;;;0.80;;
16179;SDS011;8196;49.428;10.906;2023-03-14T07:04:02;1.38;;;0.77;;
16179;SDS011;8196;49.428;10.906;2023-03-14T07:06:30;1.00;;;0.80;;
16179;SDS011;8196;49.428;10.906;2023-03-14T07:08:57;0.82;;;0.70;;
16179;SDS011;8196;49.428;10.906;2023-03-14T07:11:24;0.98;;;0.80;;
16179;SDS011;8196;49.428;10.906;2023-03-14T07:13:51;1.15;;;0.80;;
16179;SDS011;8196;49.428;10.906;2023-03-14T07:16:19;1.33;;;0.93;;
16179;SDS011;8196;49.428;10.906;2023-03-14T07:18:46;0.80;;;0.80;;
16179;SDS011;8196;49.428;10.906;2023-03-14T07:21:15;1.80;;;0.88;;
16179;SDS011;8196;49.428;10.906;2023-03-14T07:23:42;1.00;;;0.90;;
16179;SDS011;8196;49.428;10.906;2023-03-14T07:26:09;0.97;;;0.80;;
16179;SDS011;8196;49.428;10.906;2023-03-14T07:28:36;1.52;;;0.98;;
16179;SDS011;8196;49.428;10.906;2023-03-14T07:31:04;1.35;;;0.98;;
16179;SDS011;8196;49.428;10.906;2023-03-14T07:33:31;0.93;;;0.90;;
16179;SDS011;8196;49.428;10.906;2023-03-14T07:35:58;1.70;;;0.85;;
16179;SDS011;8196;49.428;10.906;2023-03-14T07:38:25;1.85;;;0.85;;
16179;SDS011;8196;49.428;10.906;2023-03-14T07:41:00;1.23;;;0.82;;
16179;SDS011;8196;49.428;10.906;2023-03-14T07:43:27;0.80;;;0.80;;
16179;SDS011;8196;49.428;10.906;2023-03-14T07:45:54;2.45;;;1.30;;
16179;SDS011;8196;49.428;10.906;2023-03-14T07:48:25;3.05;;;1.40;;
16179;SDS011;8196;49.428;10.906;2023-03-14T07:50:53;1.55;;;1.00;;
16179;SDS011;8196;49.428;10.906;2023-03-14T07:53:21;2.10;;;1.20;;
16179;SDS011;8196;49.428;10.906;2023-03-14T07:55:48;1.10;;;1.00;;
16179;SDS011;8196;49.428;10.906;2023-03-14T07:58:17;1.20;;;1.10;;
16179;SDS011;8196;49.428;10.906;2023-03-14T08:00:44;2.88;;;2.05;;
16179;SDS011;8196;49.428;10.906;2023-03-14T08:03:11;2.60;;;1.38;;
16179;SDS011;8196;49.428;10.906;2023-03-14T08:05:39;1.10;;;1.00;;
16179;SDS011;8196;49.428;10.906;2023-03-14T08:08:06;1.58;;;1.00;;
16179;SDS011;8196;49.428;10.906;2023-03-14T08:10:34;3.28;;;1.25;;
16179;SDS011;8196;49.428;10.906;2023-03-14T08:13:01;2.53;;;1.15;;
16179;SDS011;8196;49.428;10.906;2023-03-14T08:15:28;1.40;;;1.17;;
16179;SDS011;8196;49.428;10.906;2023-03-14T08:17:56;2.20;;;1.30;;
16179;SDS011;8196;49.428;10.906;2023-03-14T08:20:25;2.65;;;1.10;;
16179;SDS011;8196;49.428;10.906;2023-03-14T08:22:52;1.30;;;1.00;;
16179;SDS011;8196;49.428;10.906;2023-03-14T08:25:19;1.90;;;1.10;;
16179;SDS011;8196;49.428;10.906;2023-03-14T08:27:46;2.05;;;1.17;;
16179;SDS011;8196;49.428;10.906;2023-03-14T08:30:14;1.77;;;0.98;;
16179;SDS011;8196;49.428;10.906;2023-03-14T08:32:42;2.22;;;1.05;;
16179;SDS011;8196;49.428;10.906;2023-03-14T08:35:10;2.50;;;1.00;;
16179;SDS011;8196;49.428;10.906;2023-03-14T08:37:37;2.70;;;1.00;;
16179;SDS011;8196;49.428;10.906;2023-03-14T08:40:04;2.00;;;1.00;;
16179;SDS011;8196;49.428;10.906;2023-03-14T08:42:33;2.45;;;1.40;;
16179;SDS011;8196;49.428;10.906;2023-03-14T08:45:00;2.13;;;1.05;;
16179;SDS011;8196;49.428;10.906;2023-03-14T08:47:27;1.53;;;0.83;;
16179;SDS011;8196;49.428;10.906;2023-03-14T08:49:54;2.70;;;1.10;;
16179;SDS011;8196;49.428;10.906;2023-03-14T08:52:21;1.80;;;0.97;;
16179;SDS011;8196;49.428;10.906;2023-03-14T08:54:48;2.17;;;1.08;;
16179;SDS011;8196;49.428;10.906;2023-03-14T08:57:15;1.35;;;0.70;;
16179;SDS011;8196;49.428;10.906;2023-03-14T08:59:41;2.05;;;0.80;;
16179;SDS011;8196;49.428;10.906;2023-03-14T09:02:10;1.35;;;0.80;;
16179;SDS011;8196;49.428;10.906;2023-03-14T09:04:38;2.20;;;0.80;;
16179;SDS011;8196;49.428;10.906;2023-03-14T09:07:05;1.35;;;0.70;;
16179;SDS011;8196;49.428;10.906;2023-03-14T09:09:32;1.63;;;0.80;;
16179;SDS011;8196;49.428;10.906;2023-03-14T09:11:59;1.55;;;0.80;;
16179;SDS011;8196;49.428;10.906;2023-03-14T09:14:26;5.55;;;1.10;;
16179;SDS011;8196;49.428;10.906;2023-03-14T09:16:53;1.98;;;0.60;;
16179;SDS011;8196;49.428;10.906;2023-03-14T09:19:20;1.53;;;0.70;;
16179;SDS011;8196;49.428;10.906;2023-03-14T09:21:47;1.02;;;0.70;;
16179;SDS011;8196;49.428;10.906;2023-03-14T09:24:14;0.70;;;0.57;;
16179;SDS011;8196;49.428;10.906;2023-03-14T09:26:41;1.83;;;0.60;;
16179;SDS011;8196;49.428;10.906;2023-03-14T09:29:08;0.70;;;0.57;;
16179;SDS011;8196;49.428;10.906;2023-03-14T09:31:35;1.58;;;0.70;;
16179;SDS011;8196;49.428;10.906;2023-03-14T09:34:02;1.42;;;0.73;;
16179;SDS011;8196;49.428;10.906;2023-03-14T09:36:30;1.35;;;0.75;;
16179;SDS011;8196;49.428;10.906;2023-03-14T09:38:57;1.30;;;0.60;;
16179;SDS011;8196;49.428;10.906;2023-03-14T09:41:32;2.30;;;0.60;;
16179;SDS011;8196;49.428;10.906;2023-03-14T09:46:52;1.50;;;0.60;;
16179;SDS011;8196;49.428;10.906;2023-03-14T09:49:22;1.55;;;0.50;;
16179;SDS011;8196;49.428;10.906;2023-03-14T09:51:58;1.07;;;0.60;;
16179;SDS011;8196;49.428;10.906;2023-03-14T09:57:18;1.67;;;0.80;;
16179;SDS011;8196;49.428;10.906;2023-03-14T09:59:46;1.35;;;0.70;;
16179;SDS011;8196;49.428;10.906;2023-03-14T10:02:17;0.70;;;0.43;;
16179;SDS011;8196;49.428;10.906;2023-03-14T10:04:45;0.93;;;0.60;;
16179;SDS011;8196;49.428;10.906;2023-03-14T10:07:14;0.60;;;0.60;;
16179;SDS011;8196;49.428;10.906;2023-03-14T10:09:43;1.05;;;0.70;;
16179;SDS011;8196;49.428;10.906;2023-03-14T10:12:13;0.90;;;0.90;;
16179;SDS011;8196;49.428;10.906;2023-03-14T10:14:49;2.05;;;0.50;;
16179;SDS011;8196;49.428;10.906;2023-03-14T10:17:18;0.63;;;0.30;;
16179;SDS011;8196;49.428;10.906;2023-03-14T10:22:23;1.52;;;0.57;;
16179;SDS011;8196;49.428;10.906;2023-03-14T10:24:53;0.68;;;0.55;;
16179;SDS011;8196;49.428;10.906;2023-03-14T10:27:27;2.50;;;0.68;;
16179;SDS011;8196;49.428;10.906;2023-03-14T10:29:57;0.57;;;0.57;;
16179;SDS011;8196;49.428;10.906;2023-03-14T10:32:29;1.00;;;0.50;;
16179;SDS011;8196;49.428;10.906;2023-03-14T10:35:03;1.00;;;0.60;;
16179;SDS011;8196;49.428;10.906;2023-03-14T10:37:31;0.63;;;0.60;;
16179;SDS011;8196;49.428;10.906;2023-03-14T10:39:58;0.65;;;0.50;;
16179;SDS011;8196;49.428;10.906;2023-03-14T10:42:31;0.63;;;0.43;;
16179;SDS011;8196;49.428;10.906;2023-03-14T10:45:02;1.70;;;0.80;;
16179;SDS011;8196;49.428;10.906;2023-03-14T10:47:31;1.20;;;0.60;;
16179;SDS011;8196;49.428;10.906;2023-03-14T10:50:19;1.08;;;0.80;;
16179;SDS011;8196;49.428;10.906;2023-03-14T10:52:51;1.00;;;0.70;;
16179;SDS011;8196;49.428;10.906;2023-03-14T10:55:28;2.35;;;0.70;;
16179;SDS011;8196;49.428;10.906;2023-03-14T10:58:16;1.35;;;0.70;;
16179;SDS011;8196;49.428;10.906;2023-03-14T11:00:43;2.10;;;0.90;;
16179;SDS011;8196;49.428;10.906;2023-03-14T11:03:12;3.47;;;0.80;;
16179;SDS011;8196;49.428;10.906;2023-03-14T11:08:09;1.42;;;0.70;;
16179;SDS011;8196;49.428;10.906;2023-03-14T11:10:45;1.83;;;0.73;;
16179;SDS011;8196;49.428;10.906;2023-03-14T11:13:17;0.45;;;0.40;;
16179;SDS011;8196;49.428;10.906;2023-03-14T11:15:55;0.85;;;0.55;;
16179;SDS011;8196;49.428;10.906;2023-03-14T11:30:17;0.68;;;0.43;;
16179;SDS011;8196;49.428;10.906;2023-03-14T11:32:46;0.80;;;0.47;;
16179;SDS011;8196;49.428;10.906;2023-03-14T11:35:25;0.70;;;0.40;;
16179;SDS011;8196;49.428;10.906;2023-03-14T11:38:11;0.80;;;0.50;;
16179;SDS011;8196;49.428;10.906;2023-03-14T11:40:39;0.90;;;0.50;;
16179;SDS011;8196;49.428;10.906;2023-03-14T11:43:15;0.32;;;0.32;;
16179;SDS011;8196;49.428;10.906;2023-03-14T11:45:47;0.30;;;0.30;;
16179;SDS011;8196;49.428;10.906;2023-03-14T11:51:04;0.32;;;0.32;;
16179;SDS011;8196;49.428;10.906;2023-03-14T11:56:09;0.60;;;0.40;;
16179;SDS011;8196;49.428;10.906;2023-03-14T11:58:46;0.50;;;0.30;;
16179;SDS011;8196;49.428;10.906;2023-03-14T12:01:21;0.32;;;0.32;;
16179;SDS011;8196;49.428;10.906;2023-03-14T12:03:57;0.60;;;0.40;;
16179;SDS011;8196;49.428;10.906;2023-03-14T12:06:34;0.70;;;0.30;;
16179;SDS011;8196;49.428;10.906;2023-03-14T12:09:10;0.30;;;0.30;;
16179;SDS011;8196;49.428;10.906;2023-03-14T12:11:54;0.22;;;0.22;;
16179;SDS011;8196;49.428;10.906;2023-03-14T12:14:28;1.25;;;0.35;;
16179;SDS011;8196;49.428;10.906;2023-03-14T12:16:58;0.30;;;0.30;;
16179;SDS011;8196;49.428;10.906;2023-03-14T12:19:32;1.00;;;0.43;;
16179;SDS011;8196;49.428;10.906;2023-03-14T12:24:49;0.60;;;0.30;;
16179;SDS011;8196;49.428;10.906;2023-03-14T12:30:33;0.45;;;0.40;;
16179;SDS011;8196;49.428;10.906;2023-03-14T12:35:39;0.43;;;0.30;;
16179;SDS011;8196;49.428;10.906;2023-03-14T12:38:13;1.00;;;0.57;;
16179;SDS011;8196;49.428;10.906;2023-03-14T12:43:48;0.30;;;0.30;;
16179;SDS011;8196;49.428;10.906;2023-03-14T12:48:45;0.95;;;0.50;;
16179;SDS011;8196;49.428;10.906;2023-03-14T12:51:13;0.30;;;0.30;;
16179;SDS011;8196;49.428;10.906;2023-03-14T12:53:44;1.10;;;0.30;;
16179;SDS011;8196;49.428;10.906;2023-03-14T13:01:38;0.60;;;0.30;;
16179;SDS011;8196;49.428;10.906;2023-03-14T13:04:11;0.68;;;0.28;;
16179;SDS011;8196;49.428;10.906;2023-03-14T13:06:55;0.20;;;0.20;;
16179;SDS011;8196;49.428;10.906;2023-03-14T13:11:53;0.30;;;0.30;;
16179;SDS011;8196;49.428;10.906;2023-03-14T13:14:20;0.60;;;0.40;;
16179;SDS011;8196;49.428;10.906;2023-03-14T13:16:48;0.60;;;0.60;;
16179;SDS011;8196;49.428;10.906;2023-03-14T13:19:17;0.40;;;0.40;;
16179;SDS011;8196;49.428;10.906;2023-03-14T13:21:45;0.57;;;0.35;;
16179;SDS011;8196;49.428;10.906;2023-03-14T13:24:21;0.40;;;0.40;;
16179;SDS011;8196;49.428;10.906;2023-03-14T13:26:48;1.45;;;0.50;;
16179;SDS011;8196;49.428;10.906;2023-03-14T13:29:16;0.30;;;0.30;;
16179;SDS011;8196;49.428;10.906;2023-03-14T13:31:45;0.47;;;0.40;;
16179;SDS011;8196;49.428;10.906;2023-03-14T13:34:12;0.40;;;0.40;;
16179;SDS011;8196;49.428;10.906;2023-03-14T13:36:39;0.52;;;0.52;;
16179;SDS011;8196;49.428;10.906;2023-03-14T13:39:17;0.60;;;0.60;;
16179;SDS011;8196;49.428;10.906;2023-03-14T13:41:45;0.52;;;0.52;;
16179;SDS011;8196;49.428;10.906;2023-03-14T13:44:16;0.63;;;0.63;;
16179;SDS011;8196;49.428;10.906;2023-03-14T13:46:45;0.60;;;0.60;;
16179;SDS011;8196;49.428;10.906;2023-03-14T13:49:16;0.57;;;0.57;;
16179;SDS011;8196;49.428;10.906;2023-03-14T13:51:46;0.60;;;0.57;;
16179;SDS011;8196;49.428;10.906;2023-03-14T13:54:15;0.70;;;0.50;;
16179;SDS011;8196;49.428;10.906;2023-03-14T13:56:42;1.23;;;0.80;;
16179;SDS011;8196;49.428;10.906;2023-03-14T13:59:26;1.83;;;0.70;;
16179;SDS011;8196;49.428;10.906;2023-03-14T14:01:54;1.42;;;0.90;;
16179;SDS011;8196;49.428;10.906;2023-03-14T14:04:23;0.80;;;0.70;;
16179;SDS011;8196;49.428;10.906;2023-03-14T14:06:53;0.90;;;0.70;;
16179;SDS011;8196;49.428;10.906;2023-03-14T14:09:23;0.80;;;0.80;;
16179;SDS011;8196;49.428;10.906;2023-03-14T14:11:55;0.70;;;0.70;;
16179;SDS011;8196;49.428;10.906;2023-03-14T14:14:41;0.70;;;0.70;;
16179;SDS011;8196;49.428;10.906;2023-03-14T14:17:10;0.87;;;0.80;;
16179;SDS011;8196;49.428;10.906;2023-03-14T14:19:38;0.80;;;0.80;;
16179;SDS011;8196;49.428;10.906;2023-03-14T14:22:05;1.15;;;0.90;;
16179;SDS011;8196;49.428;10.906;2023-03-14T14:24:33;1.60;;;0.80;;
16179;SDS011;8196;49.428;10.906;2023-03-14T14:27:03;1.02;;;0.93;;
16179;SDS011;8196;49.428;10.906;2023-03-14T14:29:35;1.38;;;1.20;;
16179;SDS011;8196;49.428;10.906;2023-03-14T14:32:17;1.23;;;1.10;;
16179;SDS011;8196;49.428;10.906;2023-03-14T14:34:46;1.50;;;1.40;;
16179;SDS011;8196;49.428;10.906;2023-03-14T14:37:18;1.10;;;1.00;;
16179;SDS011;8196;49.428;10.906;2023-03-14T14:39:46;1.20;;;1.10;;
16179;SDS011;8196;49.428;10.906;2023-03-14T14:42:14;1.00;;;1.00;;
16179;SDS011;8196;49.428;10.906;2023-03-14T14:44:43;1.45;;;1.30;;
16179;SDS011;8196;49.428;10.906;2023-03-14T14:47:12;1.40;;;1.30;;
16179;SDS011;8196;49.428;10.906;2023-03-14T14:49:40;1.70;;;1.20;;
16179;SDS011;8196;49.428;10.906;2023-03-14T14:52:12;1.40;;;1.30;;
16179;SDS011;8196;49.428;10.906;2023-03-14T14:54:50;1.37;;;1.27;;
16179;SDS011;8196;49.428;10.906;2023-03-14T14:57:24;2.30;;;1.55;;
16179;SDS011;8196;49.428;10.906;2023-03-14T14:59:55;1.85;;;1.67;;
16179;SDS011;8196;49.428;10.906;2023-03-14T15:02:30;2.17;;;1.60;;
16179;SDS011;8196;49.428;10.906;2023-03-14T15:04:59;2.50;;;1.60;;
16179;SDS011;8196;49.428;10.906;2023-03-14T15:07:26;1.63;;;1.52;;
16179;SDS011;8196;49.428;10.906;2023-03-14T15:09:53;2.17;;;1.60;;
16179;SDS011;8196;49.428;10.906;2023-03-14T15:12:20;1.85;;;1.65;;
16179;SDS011;8196;49.428;10.906;2023-03-14T15:14:50;2.30;;;1.60;;
16179;SDS011;8196;49.428;10.906;2023-03-14T15:17:17;0.20;;;0.20;;
16179;SDS011;8196;49.428;10.906;2023-03-14T15:19:45;0.10;;;0.10;;
16179;SDS011;8196;49.428;10.906;2023-03-14T15:22:12;0.10;;;0.10;;
16179;SDS011;8196;49.428;10.906;2023-03-14T15:24:40;0.15;;;0.15;;
16179;SDS011;8196;49.428;10.906;2023-03-14T15:27:15;0.10;;;0.10;;
16179;SDS011;8196;49.428;10.906;2023-03-14T15:29:43;0.20;;;0.20;;
16179;SDS011;8196;49.428;10.906;2023-03-14T15:32:11;0.15;;;0.15;;
16179;SDS011;8196;49.428;10.906;2023-03-14T15:34:38;0.10;;;0.10;;
16179;SDS011;8196;49.428;10.906;2023-03-14T15:37:11;3.90;;;2.50;;
16179;SDS011;8196;49.428;10.906;2023-03-14T15:39:38;3.95;;;2.58;;
16179;SDS011;8196;49.428;10.906;2023-03-14T15:42:06;4.57;;;2.55;;
16179;SDS011;8196;49.428;10.906;2023-03-14T15:44:33;3.38;;;2.50;;
16179;SDS011;8196;49.428;10.906;2023-03-14T15:47:00;3.63;;;2.90;;
16179;SDS011;8196;49.428;10.906;2023-03-14T15:49:28;3.75;;;2.95;;
16179;SDS011;8196;49.428;10.906;2023-03-14T15:51:55;3.55;;;2.53;;
16179;SDS011;8196;49.428;10.906;2023-03-14T15:54:23;2.77;;;2.50;;